Time;durP1;ratioP1;P1;durP2;ratioP2;P2;SDS_P1;SDS_P2;PMS_P1;PMS_P2;Temp;Humidity;BMP_temperature;BMP_pressure;BME280_temperature;BME280_humidity;BME280_pressure;Samples;Min_cycle;Max_cycle;Signal;HPM_P1;HPM_P2
2023/10/28 00:00:53;;;;;;;56.17;19.87;;;;;;;;;;5076925;28;20082;-83
2023/10/28 00:03:20;;;;;;;58.10;18.92;;;;;;;;;;5094525;28;20298;-83
2023/10/28 00:05:47;;;;;;;57.65;18.17;;;;;;;;;;5076888;28;20484;-82
2023/10/28 00:08:13;;;;;;;61.70;18.48;;;;;;;;;;5060489;28;20093;-84
2023/10/28 00:10:40;;;;;;;51.10;17.10;;;;;;;;;;5095324;28;20093;-82
2023/10/28 00:13:07;;;;;;;56.85;18.98;;;;;;;;;;5076999;28;20097;-79
2023/10/28 00:15:33;;;;;;;;;;;;;;;;;;5095821;28;20054;-83
2023/10/28 00:17:59;;;;;;;57.93;17.37;;;;;;;;;;5080408;28;20010;-81
2023/10/28 00:20:29;;;;;;;56.78;17.08;;;;;;;;;;5079042;28;20104;-83
2023/10/28 00:22:55;;;;;;;52.40;17.13;;;;;;;;;;5101361;28;20392;-83
2023/10/28 00:25:29;;;;;;;55.65;17.10;;;;;;;;;;5102623;28;20097;-83
2023/10/28 00:27:55;;;;;;;53.30;17.50;;;;;;;;;;5100510;28;20044;-83
2023/10/28 00:30:25;;;;;;;60.92;17.63;;;;;;;;;;5102456;28;20040;-83
2023/10/28 00:32:58;;;;;;;57.45;17.08;;;;;;;;;;5104514;28;20048;-84
2023/10/28 00:35:24;;;;;;;56.15;17.02;;;;;;;;;;5104291;28;20099;-83
2023/10/28 00:37:51;;;;;;;54.95;16.75;;;;;;;;;;5103650;28;20373;-83
2023/10/28 00:40:17;;;;;;;49.92;18.48;;;;;;;;;;5102435;28;20055;-83
2023/10/28 00:42:45;;;;;;;65.20;19.87;;;;;;;;;;5079514;28;20043;-84
2023/10/28 00:45:13;;;;;;;58.33;17.88;;;;;;;;;;5095695;28;20097;-84
2023/10/28 00:47:40;;;;;;;53.38;16.70;;;;;;;;;;5095451;28;20048;-83
2023/10/28 00:50:12;;;;;;;55.67;17.77;;;;;;;;;;5094204;28;20048;-71
2023/10/28 00:52:45;;;;;;;56.45;18.02;;;;;;;;;;5096239;28;20050;-83
2023/10/28 00:55:12;;;;;;;52.88;17.40;;;;;;;;;;5094605;28;20044;-84
2023/10/28 00:57:42;;;;;;;59.72;18.67;;;;;;;;;;5094129;28;20044;-82
2023/10/28 01:00:09;;;;;;;56.67;17.45;;;;;;;;;;5094149;28;20385;-80
2023/10/28 01:02:35;;;;;;;63.05;18.10;;;;;;;;;;5093498;28;20082;-83
2023/10/28 01:05:02;;;;;;;51.35;16.70;;;;;;;;;;5094191;28;20459;-81
2023/10/28 01:07:29;;;;;;;55.15;18.52;;;;;;;;;;5076277;28;20048;-81
2023/10/28 01:09:55;;;;;;;50.67;17.42;;;;;;;;;;5096272;28;20044;-83
2023/10/28 01:12:23;;;;;;;52.63;17.10;;;;;;;;;;5108993;28;20048;-72
2023/10/28 01:14:50;;;;;;;57.17;16.80;;;;;;;;;;5114214;28;20096;-78
2023/10/28 01:17:16;;;;;;;54.25;17.25;;;;;;;;;;5096442;28;20075;-81
2023/10/28 01:19:42;;;;;;;52.22;17.05;;;;;;;;;;5112139;28;20113;-82
2023/10/28 01:22:08;;;;;;;45.35;15.93;;;;;;;;;;5101627;28;20089;-85
2023/10/28 01:24:35;;;;;;;48.20;15.37;;;;;;;;;;5094143;28;20052;-83
2023/10/28 01:27:04;;;;;;;52.50;15.48;;;;;;;;;;5093987;28;20642;-81
2023/10/28 01:29:30;;;;;;;43.58;15.50;;;;;;;;;;5093690;28;20052;-82
2023/10/28 01:31:56;;;;;;;49.92;15.93;;;;;;;;;;5076068;28;20105;-83
2023/10/28 01:34:22;;;;;;;55.80;16.52;;;;;;;;;;5075654;28;20058;-84
2023/10/28 01:36:49;;;;;;;54.08;15.07;;;;;;;;;;5075754;28;20048;-84
2023/10/28 01:39:18;;;;;;;47.67;15.50;;;;;;;;;;5094066;28;20048;-82
2023/10/28 01:41:44;;;;;;;48.78;15.38;;;;;;;;;;5087716;28;20044;-84
2023/10/28 01:44:11;;;;;;;51.30;16.05;;;;;;;;;;5105930;28;20047;-83
2023/10/28 01:46:37;;;;;;;47.15;15.93;;;;;;;;;;5095025;28;20056;-81
2023/10/28 01:49:04;;;;;;;49.03;16.37;;;;;;;;;;5075519;28;20040;-83
2023/10/28 01:51:30;;;;;;;45.28;15.85;;;;;;;;;;5075453;28;20048;-80
2023/10/28 01:53:56;;;;;;;46.35;14.75;;;;;;;;;;5076346;28;20366;-84
2023/10/28 01:56:22;;;;;;;47.00;15.88;;;;;;;;;;5094091;28;20086;-85
2023/10/28 01:58:48;;;;;;;43.22;14.65;;;;;;;;;;5093359;28;20055;-81
2023/10/28 02:01:14;;;;;;;35.70;13.30;;;;;;;;;;5075624;28;20045;-82
2023/10/28 02:03:41;;;;;;;37.05;14.15;;;;;;;;;;5093415;28;20494;-84
2023/10/28 02:06:07;;;;;;;36.65;13.32;;;;;;;;;;5093088;28;20139;-83
2023/10/28 02:08:34;;;;;;;38.85;13.27;;;;;;;;;;5093126;28;20142;-83
2023/10/28 02:11:00;;;;;;;39.58;13.32;;;;;;;;;;5093883;28;20044;-82
2023/10/28 02:13:26;;;;;;;37.70;13.90;;;;;;;;;;5092985;28;20050;-84
2023/10/28 02:15:52;;;;;;;38.35;13.35;;;;;;;;;;5094421;28;20371;-83
2023/10/28 02:18:18;;;;;;;37.20;13.38;;;;;;;;;;5079627;28;20362;-72
2023/10/28 02:20:44;;;;;;;46.20;13.60;;;;;;;;;;5079414;28;20052;-84
2023/10/28 02:23:13;;;;;;;34.27;12.30;;;;;;;;;;5097008;28;20377;-82
2023/10/28 02:25:41;;;;;;;41.90;12.57;;;;;;;;;;5078927;28;20356;-82
2023/10/28 02:28:08;;;;;;;36.97;12.30;;;;;;;;;;5097066;28;20101;-84
2023/10/28 02:30:36;;;;;;;37.43;13.07;;;;;;;;;;5104385;28;20373;-83
2023/10/28 02:33:03;;;;;;;39.08;13.38;;;;;;;;;;5105239;28;20056;-83
2023/10/28 02:35:29;;;;;;;34.35;12.88;;;;;;;;;;5105147;28;20044;-85
2023/10/28 02:37:55;;;;;;;29.20;12.20;;;;;;;;;;5104578;28;20048;-87
2023/10/28 02:40:21;;;;;;;39.10;12.48;;;;;;;;;;5101837;28;20043;-74
2023/10/28 02:42:47;;;;;;;39.65;12.50;;;;;;;;;;5099852;28;20088;-82
2023/10/28 02:45:14;;;;;;;39.35;13.02;;;;;;;;;;5080858;28;20059;-84
2023/10/28 02:47:40;;;;;;;36.88;11.60;;;;;;;;;;5080230;28;20396;-84
2023/10/28 02:50:07;;;;;;;39.22;13.93;;;;;;;;;;5096864;28;20047;-84
2023/10/28 02:52:34;;;;;;;36.15;13.00;;;;;;;;;;5079119;28;20437;-84
2023/10/28 02:55:00;;;;;;;38.65;12.75;;;;;;;;;;5096122;28;20511;-83
2023/10/28 02:57:26;;;;;;;39.72;12.07;;;;;;;;;;5096898;28;20047;-82
2023/10/28 02:59:52;;;;;;;35.10;11.98;;;;;;;;;;5095989;28;20051;-83
2023/10/28 03:02:19;;;;;;;34.90;11.48;;;;;;;;;;5086931;28;20150;-83
2023/10/28 03:04:45;;;;;;;38.70;12.20;;;;;;;;;;5099811;28;20095;-84
2023/10/28 03:07:11;;;;;;;33.78;12.40;;;;;;;;;;5078547;28;20101;-83
2023/10/28 03:09:38;;;;;;;32.63;11.52;;;;;;;;;;5096768;28;20404;-84
2023/10/28 03:12:04;;;;;;;;;;;;;;;;;;5096824;28;20059;-84
2023/10/28 03:14:30;;;;;;;34.85;11.70;;;;;;;;;;5096123;28;20264;-84
2023/10/28 03:16:56;;;;;;;32.78;10.80;;;;;;;;;;5096088;28;20512;-85
2023/10/28 03:19:22;;;;;;;39.03;11.65;;;;;;;;;;5096106;28;20425;-84
2023/10/28 03:21:49;;;;;;;29.17;11.30;;;;;;;;;;5095564;28;20040;-84
2023/10/28 03:24:15;;;;;;;32.28;11.93;;;;;;;;;;5095672;28;20173;-83
2023/10/28 03:26:41;;;;;;;29.90;11.13;;;;;;;;;;5095561;28;20044;-84
2023/10/28 03:29:07;;;;;;;31.25;11.27;;;;;;;;;;5076851;28;20377;-85
2023/10/28 03:31:33;;;;;;;32.05;11.95;;;;;;;;;;5095891;28;20380;-84
2023/10/28 03:33:59;;;;;;;32.83;10.97;;;;;;;;;;5096009;28;20424;-83
2023/10/28 03:36:25;;;;;;;33.50;11.18;;;;;;;;;;5095456;28;20039;-82
2023/10/28 03:38:51;;;;;;;32.33;10.73;;;;;;;;;;5095803;28;20372;-83
2023/10/28 03:41:18;;;;;;;40.70;11.68;;;;;;;;;;5095924;28;20341;-84
2023/10/28 03:43:45;;;;;;;37.10;10.88;;;;;;;;;;5094971;28;20056;-84
2023/10/28 03:46:18;;;;;;;35.03;11.15;;;;;;;;;;5077153;28;20139;-84
2023/10/28 03:48:45;;;;;;;36.25;11.10;;;;;;;;;;5094929;28;20048;-84
2023/10/28 03:51:11;;;;;;;38.42;11.23;;;;;;;;;;5095355;28;20426;-83
2023/10/28 03:53:37;;;;;;;34.67;11.02;;;;;;;;;;5095431;28;20093;-83
2023/10/28 03:56:05;;;;;;;30.80;10.50;;;;;;;;;;5095445;28;20074;-84
2023/10/28 03:58:31;;;;;;;31.13;10.60;;;;;;;;;;5095552;28;20380;-85
2023/10/28 04:00:58;;;;;;;27.83;10.38;;;;;;;;;;5095275;28;20131;-84
2023/10/28 04:03:24;;;;;;;34.33;11.27;;;;;;;;;;5095011;28;20052;-83
2023/10/28 04:05:50;;;;;;;34.03;11.05;;;;;;;;;;5094704;28;20087;-83
2023/10/28 04:08:16;;;;;;;29.73;11.50;;;;;;;;;;5095237;28;20043;-83
2023/10/28 04:10:42;;;;;;;33.83;11.20;;;;;;;;;;5077381;28;20048;-81
2023/10/28 04:13:12;;;;;;;33.80;11.07;;;;;;;;;;5094668;28;20173;-81
2023/10/28 04:15:38;;;;;;;30.65;10.60;;;;;;;;;;5094367;28;20519;-82
2023/10/28 04:18:04;;;;;;;29.50;11.18;;;;;;;;;;5094628;28;20097;-84
2023/10/28 04:20:31;;;;;;;31.83;10.35;;;;;;;;;;5094980;28;20048;-85
2023/10/28 04:22:57;;;;;;;33.13;11.23;;;;;;;;;;5095269;28;20495;-81
2023/10/28 04:25:23;;;;;;;37.93;11.77;;;;;;;;;;5106134;28;20047;-83
2023/10/28 04:27:50;;;;;;;34.08;11.60;;;;;;;;;;5104083;28;20044;-83
2023/10/28 04:30:16;;;;;;;;;;;;;;;;;;5095368;28;20044;-84
2023/10/28 04:32:43;;;;;;;31.17;10.33;;;;;;;;;;5094392;28;20385;-81
2023/10/28 04:35:10;;;;;;;34.08;10.35;;;;;;;;;;5094935;28;20070;-84
2023/10/28 04:37:36;;;;;;;33.72;11.68;;;;;;;;;;5076658;28;20044;-82
2023/10/28 04:40:06;;;;;;;29.77;11.23;;;;;;;;;;5094886;28;20097;-85
2023/10/28 04:42:32;;;;;;;29.17;10.65;;;;;;;;;;5096794;28;20103;-81
2023/10/28 04:44:58;;;;;;;33.20;11.07;;;;;;;;;;5097669;28;20105;-85
2023/10/28 04:47:24;;;;;;;30.23;9.93;;;;;;;;;;5093986;28;20044;-83
2023/10/28 04:49:51;;;;;;;29.52;10.73;;;;;;;;;;5093906;28;20180;-81
2023/10/28 04:52:17;;;;;;;31.30;10.07;;;;;;;;;;5094184;28;20063;-81
2023/10/28 04:54:43;;;;;;;26.40;10.63;;;;;;;;;;5093909;28;20047;-82
2023/10/28 04:57:09;;;;;;;27.50;10.30;;;;;;;;;;5094108;28;20458;-81
2023/10/28 04:59:35;;;;;;;32.03;10.95;;;;;;;;;;5076128;28;20499;-83
2023/10/28 05:02:01;;;;;;;28.55;9.98;;;;;;;;;;5076050;28;20059;-80
2023/10/28 05:04:28;;;;;;;29.40;10.35;;;;;;;;;;5093790;28;20063;-80
2023/10/28 05:06:54;;;;;;;33.75;10.85;;;;;;;;;;5094193;28;20052;-80
2023/10/28 05:09:21;;;;;;;32.28;10.73;;;;;;;;;;5093888;28;20104;-81
2023/10/28 05:11:47;;;;;;;40.60;10.35;;;;;;;;;;5076019;28;20067;-81
2023/10/28 05:14:14;;;;;;;36.33;10.18;;;;;;;;;;5093857;28;20055;-82
2023/10/28 05:16:40;;;;;;;26.90;9.63;;;;;;;;;;5093879;28;20109;-81
2023/10/28 05:19:08;;;;;;;29.57;9.73;;;;;;;;;;5094318;28;20051;-78
2023/10/28 05:21:34;;;;;;;23.45;9.07;;;;;;;;;;5094415;28;20091;-83
2023/10/28 05:24:00;;;;;;;23.10;9.23;;;;;;;;;;5093572;28;20048;-82
2023/10/28 05:26:27;;;;;;;26.17;9.65;;;;;;;;;;5094060;28;20139;-84
2023/10/28 05:28:54;;;;;;;24.80;9.18;;;;;;;;;;5095039;28;20051;-83
2023/10/28 05:31:20;;;;;;;27.40;8.45;;;;;;;;;;5080668;28;20400;-79
2023/10/28 05:33:47;;;;;;;27.13;8.87;;;;;;;;;;5081959;28;20068;-78
2023/10/28 05:36:15;;;;;;;26.05;8.32;;;;;;;;;;5099646;28;20048;-79
2023/10/28 05:38:42;;;;;;;23.05;8.65;;;;;;;;;;5100648;28;20043;-82
2023/10/28 05:41:09;;;;;;;24.10;8.27;;;;;;;;;;5098609;28;20043;-82
2023/10/28 05:43:35;;;;;;;17.85;7.55;;;;;;;;;;5097388;28;20044;-82
2023/10/28 05:46:02;;;;;;;24.00;7.93;;;;;;;;;;5096144;28;20055;-81
2023/10/28 05:48:32;;;;;;;22.17;7.43;;;;;;;;;;5077472;28;20067;-84
2023/10/28 05:50:59;;;;;;;18.40;7.55;;;;;;;;;;5098833;28;20505;-83
2023/10/28 05:53:25;;;;;;;22.40;7.82;;;;;;;;;;5083728;28;20055;-82
2023/10/28 05:55:52;;;;;;;24.45;7.28;;;;;;;;;;5099261;28;20075;-80
2023/10/28 05:58:18;;;;;;;16.73;6.47;;;;;;;;;;5099907;28;20113;-77
2023/10/28 06:00:44;;;;;;;16.63;7.00;;;;;;;;;;5098694;28;20044;-81
2023/10/28 06:03:12;;;;;;;20.97;7.27;;;;;;;;;;5098823;28;20612;-79
2023/10/28 06:05:38;;;;;;;23.40;6.75;;;;;;;;;;5099646;28;20063;-83
2023/10/28 06:08:06;;;;;;;15.82;6.40;;;;;;;;;;5097952;28;20050;-82
2023/10/28 06:10:34;;;;;;;18.27;5.93;;;;;;;;;;5097833;28;20040;-83
2023/10/28 06:13:01;;;;;;;20.20;5.80;;;;;;;;;;5079777;28;20057;-81
2023/10/28 06:15:27;;;;;;;14.52;5.63;;;;;;;;;;5079943;28;20052;-83
2023/10/28 06:17:53;;;;;;;14.25;5.10;;;;;;;;;;5078704;28;20097;-83
2023/10/28 06:20:20;;;;;;;18.55;5.40;;;;;;;;;;5096699;28;20517;-82
2023/10/28 06:22:46;;;;;;;16.60;4.63;;;;;;;;;;5098512;28;20052;-81
2023/10/28 06:25:14;;;;;;;15.07;4.75;;;;;;;;;;5098792;28;20100;-83
2023/10/28 06:27:40;;;;;;;16.73;4.85;;;;;;;;;;5097483;28;20080;-80
2023/10/28 06:30:07;;;;;;;16.43;5.23;;;;;;;;;;5097720;28;20151;-83
2023/10/28 06:32:33;;;;;;;13.73;4.57;;;;;;;;;;5079167;28;20051;-79
2023/10/28 06:35:00;;;;;;;21.23;4.60;;;;;;;;;;5079972;28;20093;-79
2023/10/28 06:37:26;;;;;;;15.90;5.00;;;;;;;;;;5096440;28;20400;-82
2023/10/28 06:39:52;;;;;;;17.38;5.10;;;;;;;;;;5079212;28;20430;-83
2023/10/28 06:42:18;;;;;;;18.45;4.82;;;;;;;;;;5097007;28;20051;-81
2023/10/28 06:44:44;;;;;;;16.20;4.65;;;;;;;;;;5097179;28;20105;-82
2023/10/28 06:47:11;;;;;;;17.55;4.65;;;;;;;;;;5079166;28;20044;-79
2023/10/28 06:49:37;;;;;;;13.40;4.68;;;;;;;;;;5097391;28;20134;-80
2023/10/28 06:52:03;;;;;;;17.42;5.35;;;;;;;;;;5062024;28;20048;-84
2023/10/28 06:54:30;;;;;;;17.17;5.25;;;;;;;;;;5097126;28;20345;-80
2023/10/28 06:56:56;;;;;;;14.00;4.50;;;;;;;;;;5096672;28;20048;-82
2023/10/28 06:59:23;;;;;;;14.10;4.53;;;;;;;;;;5097325;28;20044;-81
2023/10/28 07:01:50;;;;;;;14.10;5.07;;;;;;;;;;5096441;28;20044;-82
2023/10/28 07:04:16;;;;;;;14.60;4.50;;;;;;;;;;5096267;28;20098;-82
2023/10/28 07:06:42;;;;;;;14.15;4.30;;;;;;;;;;5078478;28;20040;-79
2023/10/28 07:09:08;;;;;;;11.40;4.17;;;;;;;;;;5096805;28;20044;-81
2023/10/28 07:11:34;;;;;;;15.18;4.25;;;;;;;;;;5100946;28;20373;-81
2023/10/28 07:14:00;;;;;;;13.23;4.38;;;;;;;;;;5098777;28;20047;-80
2023/10/28 07:16:30;;;;;;;12.40;4.32;;;;;;;;;;5096963;28;20544;-82
2023/10/28 07:18:57;;;;;;;13.50;4.05;;;;;;;;;;5078064;28;20063;-81
2023/10/28 07:21:23;;;;;;;9.97;3.70;;;;;;;;;;5078253;28;20556;-80
2023/10/28 07:23:49;;;;;;;15.75;3.92;;;;;;;;;;5079059;28;20644;-80
2023/10/28 07:26:16;;;;;;;11.80;3.70;;;;;;;;;;5095599;28;20495;-82
2023/10/28 07:28:42;;;;;;;10.88;3.38;;;;;;;;;;5096040;28;20043;-81
2023/10/28 07:31:08;;;;;;;14.57;3.97;;;;;;;;;;5061936;28;20399;-81
2023/10/28 07:33:35;;;;;;;11.90;3.95;;;;;;;;;;5095874;28;20278;-82
2023/10/28 07:36:04;;;;;;;11.30;3.53;;;;;;;;;;5095780;28;20055;-81
2023/10/28 07:38:30;;;;;;;11.02;3.90;;;;;;;;;;5096119;28;20388;-80
2023/10/28 07:40:57;;;;;;;9.45;3.70;;;;;;;;;;5077551;28;20040;-81
2023/10/28 07:43:23;;;;;;;11.98;3.60;;;;;;;;;;5095940;28;20105;-82
2023/10/28 07:45:49;;;;;;;15.60;3.53;;;;;;;;;;5097039;28;20499;-80
2023/10/28 07:48:15;;;;;;;8.70;3.17;;;;;;;;;;5097374;28;20048;-83
2023/10/28 07:50:42;;;;;;;16.27;3.38;;;;;;;;;;5095744;28;20048;-79
2023/10/28 07:53:09;;;;;;;8.95;3.25;;;;;;;;;;5095817;28;20048;-79
2023/10/28 07:55:38;;;;;;;9.93;3.40;;;;;;;;;;5095851;28;20395;-82
2023/10/28 07:58:08;;;;;;;10.82;3.40;;;;;;;;;;5077648;28;20112;-82
2023/10/28 08:00:37;;;;;;;8.95;3.80;;;;;;;;;;5095560;28;20048;-80
2023/10/28 08:03:03;;;;;;;10.85;4.30;;;;;;;;;;5077886;28;20044;-83
2023/10/28 08:05:29;;;;;;;14.40;4.00;;;;;;;;;;5096190;28;20131;-81
2023/10/28 08:07:56;;;;;;;11.27;4.13;;;;;;;;;;5095520;28;20048;-81
2023/10/28 08:10:22;;;;;;;9.60;3.53;;;;;;;;;;5095146;28;20116;-81
2023/10/28 08:13:00;;;;;;;11.07;3.93;;;;;;;;;;5077040;28;20040;-77
2023/10/28 08:15:29;;;;;;;8.43;3.28;;;;;;;;;;5095038;28;20274;-76
2023/10/28 08:17:55;;;;;;;10.52;3.38;;;;;;;;;;5094840;28;20044;-83
2023/10/28 08:20:22;;;;;;;14.25;4.15;;;;;;;;;;5094823;28;20165;-80
2023/10/28 08:22:48;;;;;;;10.60;4.53;;;;;;;;;;5095897;28;20126;-80
2023/10/28 08:25:17;;;;;;;15.10;4.72;;;;;;;;;;5095157;28;20047;-77
2023/10/28 08:27:47;;;;;;;11.82;4.20;;;;;;;;;;5094605;28;20539;-75
2023/10/28 08:30:15;;;;;;;12.70;4.55;;;;;;;;;;5095255;28;20161;-78
2023/10/28 08:32:42;;;;;;;10.50;3.85;;;;;;;;;;5076382;28;20100;-77
2023/10/28 08:35:09;;;;;;;11.27;4.18;;;;;;;;;;5095356;28;20400;-82
2023/10/28 08:37:36;;;;;;;16.05;4.18;;;;;;;;;;5100128;28;20044;-77
2023/10/28 08:40:06;;;;;;;12.27;3.85;;;;;;;;;;5101042;28;20055;-80
2023/10/28 08:42:34;;;;;;;11.23;4.10;;;;;;;;;;5101801;28;20091;-81
2023/10/28 08:45:03;;;;;;;10.52;4.13;;;;;;;;;;5085121;28;20404;-80
2023/10/28 08:47:32;;;;;;;15.00;4.28;;;;;;;;;;5103439;28;20047;-77
2023/10/28 08:49:59;;;;;;;11.55;3.72;;;;;;;;;;5103990;28;20055;-80
2023/10/28 08:52:25;;;;;;;;;;;;;;;;;;5084037;28;20070;-79
2023/10/28 08:54:52;;;;;;;8.60;2.87;;;;;;;;;;5097600;28;20014;-79
2023/10/28 08:57:18;;;;;;;8.10;3.90;;;;;;;;;;5078978;28;20047;-79
2023/10/28 08:59:44;;;;;;;10.85;3.80;;;;;;;;;;5099182;28;20047;-79
2023/10/28 09:02:11;;;;;;;9.77;3.72;;;;;;;;;;5097248;28;20047;-77
2023/10/28 09:04:37;;;;;;;13.63;5.50;;;;;;;;;;5096086;28;20056;-82
2023/10/28 09:07:05;;;;;;;10.52;3.85;;;;;;;;;;5093986;28;20055;-82
2023/10/28 09:09:31;;;;;;;11.52;3.72;;;;;;;;;;5093962;28;20054;-81
2023/10/28 09:11:57;;;;;;;9.03;3.27;;;;;;;;;;5093988;28;20048;-79
2023/10/28 09:14:24;;;;;;;10.88;3.60;;;;;;;;;;5075695;28;20132;-82
2023/10/28 09:16:50;;;;;;;8.52;3.65;;;;;;;;;;5075797;28;20044;-79
2023/10/28 09:19:21;;;;;;;8.68;3.50;;;;;;;;;;5075955;28;20079;-77
2023/10/28 09:21:50;;;;;;;10.02;3.78;;;;;;;;;;5093871;28;20088;-77
2023/10/28 09:24:21;;;;;;;9.02;3.33;;;;;;;;;;5093914;28;20080;-78
2023/10/28 09:26:50;;;;;;;9.07;3.30;;;;;;;;;;5093382;28;20058;-76
2023/10/28 09:29:29;;;;;;;10.65;3.33;;;;;;;;;;5075991;28;20519;-79
2023/10/28 09:32:04;;;;;;;10.05;4.20;;;;;;;;;;5095688;28;20093;-78
2023/10/28 09:34:30;;;;;;;11.25;4.05;;;;;;;;;;5095726;28;20044;-75
2023/10/28 09:36:57;;;;;;;8.88;2.90;;;;;;;;;;5094511;28;20050;-79
2023/10/28 09:39:23;;;;;;;9.60;3.60;;;;;;;;;;5094176;28;20052;-79
2023/10/28 09:41:51;;;;;;;7.87;2.93;;;;;;;;;;5075904;28;20044;-71
2023/10/28 09:44:17;;;;;;;10.43;3.20;;;;;;;;;;5094207;28;20087;-75
2023/10/28 09:46:46;;;;;;;6.72;2.83;;;;;;;;;;5094072;28;20052;-78
2023/10/28 09:49:14;;;;;;;7.82;3.25;;;;;;;;;;5096161;28;20054;-80
2023/10/28 09:51:42;;;;;;;9.15;3.53;;;;;;;;;;5096128;28;20055;-76
2023/10/28 09:54:18;;;;;;;10.45;3.35;;;;;;;;;;5095467;28;20044;-77
2023/10/28 09:56:45;;;;;;;7.15;3.00;;;;;;;;;;5096036;28;20055;-81
2023/10/28 09:59:20;;;;;;;7.40;3.25;;;;;;;;;;5078172;28;20048;-77
2023/10/28 10:01:55;;;;;;;11.30;2.88;;;;;;;;;;5097388;28;20036;-78
2023/10/28 10:04:39;;;;;;;8.75;2.75;;;;;;;;;;5096838;28;20063;-78
2023/10/28 10:07:05;;;;;;;7.53;2.72;;;;;;;;;;5094382;28;20122;-78
2023/10/28 10:09:41;;;;;;;6.97;3.10;;;;;;;;;;5094368;28;20052;-77
2023/10/28 10:12:07;;;;;;;8.05;2.60;;;;;;;;;;5093475;28;20059;-79
2023/10/28 10:14:33;;;;;;;6.63;2.40;;;;;;;;;;5093381;28;20048;-75
2023/10/28 10:17:02;;;;;;;9.98;2.83;;;;;;;;;;5093192;28;20312;-76
2023/10/28 10:19:35;;;;;;;9.68;2.80;;;;;;;;;;5093515;28;20036;-78
2023/10/28 10:22:06;;;;;;;7.25;2.70;;;;;;;;;;5092906;28;20044;-76
2023/10/28 10:24:32;;;;;;;7.32;2.40;;;;;;;;;;5093333;28;20052;-76
2023/10/28 10:27:00;;;;;;;10.43;2.80;;;;;;;;;;5093855;28;20044;-74
2023/10/28 10:29:26;;;;;;;10.45;2.38;;;;;;;;;;5074838;28;20455;-74
2023/10/28 10:31:53;;;;;;;11.25;2.58;;;;;;;;;;5093878;28;20083;-76
2023/10/28 10:34:33;;;;;;;9.52;2.20;;;;;;;;;;5093398;28;20048;-78
2023/10/28 10:37:00;;;;;;;4.60;2.03;;;;;;;;;;5095347;28;20090;-75
2023/10/28 10:39:26;;;;;;;9.25;2.53;;;;;;;;;;5100992;28;20077;-76
2023/10/28 10:41:55;;;;;;;6.38;2.40;;;;;;;;;;5100685;28;20329;-75
2023/10/28 10:44:22;;;;;;;8.77;2.85;;;;;;;;;;5099977;28;20152;-76
2023/10/28 10:46:52;;;;;;;8.40;2.40;;;;;;;;;;5099005;28;20469;-75
2023/10/28 10:49:18;;;;;;;7.97;2.63;;;;;;;;;;5097276;28;20044;-74
2023/10/28 10:51:47;;;;;;;8.32;2.38;;;;;;;;;;5077885;28;20063;-74
2023/10/28 10:54:13;;;;;;;9.85;2.25;;;;;;;;;;5096242;28;20367;-75
2023/10/28 10:56:39;;;;;;;10.77;2.80;;;;;;;;;;5077712;28;20040;-76
2023/10/28 10:59:05;;;;;;;8.73;2.45;;;;;;;;;;5095952;28;20055;-75
2023/10/28 11:01:31;;;;;;;9.10;2.70;;;;;;;;;;5077660;28;20048;-73
2023/10/28 11:03:58;;;;;;;9.00;2.50;;;;;;;;;;5095489;28;20251;-74
2023/10/28 11:06:24;;;;;;;7.23;2.77;;;;;;;;;;5096348;28;20044;-76
2023/10/28 11:08:50;;;;;;;10.02;2.60;;;;;;;;;;5095730;28;20052;-75
2023/10/28 11:11:16;;;;;;;9.55;2.42;;;;;;;;;;5077802;28;20103;-76
2023/10/28 11:13:44;;;;;;;8.15;2.42;;;;;;;;;;5095704;28;20043;-74
2023/10/28 11:16:09;;;;;;;;;;;;;;;;;;5095906;28;20148;-74
2023/10/28 11:18:39;;;;;;;7.80;2.63;;;;;;;;;;5095599;28;19919;-71
2023/10/28 11:21:06;;;;;;;7.50;2.17;;;;;;;;;;5077565;28;20044;-77
2023/10/28 11:23:32;;;;;;;8.70;2.50;;;;;;;;;;5077697;28;20055;-74
2023/10/28 11:26:03;;;;;;;5.97;2.10;;;;;;;;;;5095080;28;20852;-74
2023/10/28 11:28:38;;;;;;;9.00;2.40;;;;;;;;;;5078053;28;20491;-74
2023/10/28 11:31:05;;;;;;;6.10;1.95;;;;;;;;;;5078165;28;20121;-74
2023/10/28 11:33:33;;;;;;;8.25;2.00;;;;;;;;;;5095800;28;20048;-73
2023/10/28 11:36:01;;;;;;;7.07;2.08;;;;;;;;;;5095013;28;20042;-74
2023/10/28 11:38:31;;;;;;;10.68;2.60;;;;;;;;;;5095935;28;20052;-73
2023/10/28 11:41:04;;;;;;;7.63;2.08;;;;;;;;;;5094860;28;20084;-75
2023/10/28 11:43:31;;;;;;;9.57;2.17;;;;;;;;;;5095117;28;20092;-73
2023/10/28 11:45:57;;;;;;;12.47;2.37;;;;;;;;;;5095248;28;20048;-74
2023/10/28 11:48:23;;;;;;;7.05;2.13;;;;;;;;;;5094193;28;20052;-75
2023/10/28 11:50:49;;;;;;;10.53;2.30;;;;;;;;;;5094767;28;20404;-75
2023/10/28 11:53:15;;;;;;;8.43;1.77;;;;;;;;;;5059833;28;20043;-74
2023/10/28 11:55:41;;;;;;;10.93;2.40;;;;;;;;;;5076774;28;20048;-75
2023/10/28 11:58:11;;;;;;;9.23;1.90;;;;;;;;;;5094940;28;20044;-76
2023/10/28 12:00:37;;;;;;;8.80;2.17;;;;;;;;;;5076541;28;20091;-73
2023/10/28 12:03:06;;;;;;;8.13;1.93;;;;;;;;;;5095192;28;20048;-76
2023/10/28 12:05:35;;;;;;;7.85;1.40;;;;;;;;;;5094496;28;20052;-74
2023/10/28 12:08:02;;;;;;;7.78;1.88;;;;;;;;;;5094168;28;20040;-74
2023/10/28 12:10:29;;;;;;;4.57;1.30;;;;;;;;;;5094170;28;20048;-75
2023/10/28 12:12:55;;;;;;;7.80;1.80;;;;;;;;;;5076019;28;20547;-73
2023/10/28 12:15:21;;;;;;;7.70;1.70;;;;;;;;;;5076270;28;20040;-76
2023/10/28 12:17:47;;;;;;;8.48;2.20;;;;;;;;;;5076109;28;20494;-73
2023/10/28 12:20:17;;;;;;;8.80;2.50;;;;;;;;;;5093932;28;20507;-75
2023/10/28 12:22:43;;;;;;;9.35;2.65;;;;;;;;;;5094191;28;20043;-75
2023/10/28 12:25:11;;;;;;;10.27;2.10;;;;;;;;;;5094462;28;20134;-77
2023/10/28 12:27:37;;;;;;;10.50;1.92;;;;;;;;;;5094922;28;20142;-76
2023/10/28 12:30:08;;;;;;;7.95;2.22;;;;;;;;;;5094229;28;20055;-76
2023/10/28 12:32:34;;;;;;;9.57;3.00;;;;;;;;;;5094102;28;20495;-73
2023/10/28 12:35:00;;;;;;;13.18;3.97;;;;;;;;;;5076585;28;20087;-76
2023/10/28 12:37:26;;;;;;;6.20;2.00;;;;;;;;;;5094048;28;20052;-76
2023/10/28 12:39:52;;;;;;;5.75;1.50;;;;;;;;;;5093926;28;20499;-76
2023/10/28 12:42:19;;;;;;;8.07;1.98;;;;;;;;;;5076171;28;20052;-76
2023/10/28 12:44:45;;;;;;;6.00;1.50;;;;;;;;;;5094042;28;20508;-75
2023/10/28 12:47:11;;;;;;;5.20;1.85;;;;;;;;;;5093893;28;20043;-76
2023/10/28 12:49:38;;;;;;;7.32;1.90;;;;;;;;;;5093966;28;20055;-77
2023/10/28 12:52:04;;;;;;;9.32;2.17;;;;;;;;;;5075603;28;20094;-76
2023/10/28 12:54:32;;;;;;;7.30;2.23;;;;;;;;;;5093870;28;20053;-76
2023/10/28 12:56:58;;;;;;;9.55;1.85;;;;;;;;;;5093676;28;20274;-75
2023/10/28 12:59:24;;;;;;;7.20;1.70;;;;;;;;;;5093834;28;20043;-76
2023/10/28 13:01:50;;;;;;;9.20;1.95;;;;;;;;;;5093072;28;20762;-75
2023/10/28 13:04:17;;;;;;;5.70;2.35;;;;;;;;;;5094039;28;20060;-74
2023/10/28 13:06:43;;;;;;;8.83;1.67;;;;;;;;;;5076050;28;20048;-73
2023/10/28 13:09:11;;;;;;;6.27;1.33;;;;;;;;;;5093516;28;20384;-71
2023/10/28 13:11:39;;;;;;;8.13;1.30;;;;;;;;;;5093710;28;20044;-75
2023/10/28 13:14:08;;;;;;;6.47;1.38;;;;;;;;;;5093469;28;20044;-75
2023/10/28 13:16:34;;;;;;;9.68;2.15;;;;;;;;;;5093908;28;20054;-75
2023/10/28 13:19:04;;;;;;;4.95;1.40;;;;;;;;;;5075575;28;20051;-74
2023/10/28 13:21:31;;;;;;;9.00;1.20;;;;;;;;;;5093772;28;20346;-74
2023/10/28 13:23:58;;;;;;;10.73;1.98;;;;;;;;;;5075270;28;20100;-76
2023/10/28 13:26:24;;;;;;;4.57;1.40;;;;;;;;;;5093561;28;20051;-75
2023/10/28 13:28:50;;;;;;;6.55;1.48;;;;;;;;;;5093885;28;20470;-74
2023/10/28 13:31:16;;;;;;;9.40;1.90;;;;;;;;;;5093557;28;20205;-74
2023/10/28 13:33:42;;;;;;;8.25;1.65;;;;;;;;;;5093633;28;20044;-75
2023/10/28 13:36:10;;;;;;;8.95;1.65;;;;;;;;;;5093336;28;20464;-75
2023/10/28 13:38:37;;;;;;;9.48;1.70;;;;;;;;;;5093741;28;20059;-75
2023/10/28 13:41:03;;;;;;;5.65;1.70;;;;;;;;;;5093486;28;20349;-75
2023/10/28 13:43:30;;;;;;;5.47;1.60;;;;;;;;;;5093442;28;20066;-75
2023/10/28 13:46:03;;;;;;;9.33;2.07;;;;;;;;;;5093346;28;20136;-75
2023/10/28 13:48:30;;;;;;;6.63;1.40;;;;;;;;;;5093310;28;20336;-76
2023/10/28 13:50:58;;;;;;;5.13;1.52;;;;;;;;;;5093160;28;20074;-75
2023/10/28 13:53:24;;;;;;;6.38;1.65;;;;;;;;;;5093100;28;20373;-75
2023/10/28 13:55:51;;;;;;;7.57;1.33;;;;;;;;;;5093960;28;20368;-73
2023/10/28 13:58:17;;;;;;;7.55;1.48;;;;;;;;;;5093548;28;20498;-79
2023/10/28 14:00:44;;;;;;;7.07;1.30;;;;;;;;;;5093399;28;20044;-77
2023/10/28 14:03:12;;;;;;;7.35;1.35;;;;;;;;;;5074917;28;20412;-74
2023/10/28 14:05:38;;;;;;;7.05;1.45;;;;;;;;;;5092834;28;20523;-74
2023/10/28 14:08:05;;;;;;;8.45;1.60;;;;;;;;;;5092730;28;20511;-74
2023/10/28 14:10:31;;;;;;;5.55;1.40;;;;;;;;;;5075069;28;20040;-76
2023/10/28 14:12:57;;;;;;;6.03;1.47;;;;;;;;;;5095510;28;20040;-76
2023/10/28 14:15:24;;;;;;;10.30;1.67;;;;;;;;;;5096524;28;20112;-74
2023/10/28 14:17:50;;;;;;;7.87;1.90;;;;;;;;;;5079218;28;20044;-76
2023/10/28 14:20:17;;;;;;;7.07;1.40;;;;;;;;;;5096709;28;20386;-74
2023/10/28 14:22:44;;;;;;;6.07;1.15;;;;;;;;;;5097037;28;20052;-78
2023/10/28 14:25:13;;;;;;;9.38;1.60;;;;;;;;;;5096786;28;20055;-75
2023/10/28 14:27:42;;;;;;;8.30;1.73;;;;;;;;;;5096588;28;20051;-74
2023/10/28 14:30:08;;;;;;;6.15;1.40;;;;;;;;;;5096522;28;20044;-76